This is the latest recevied weather packets stored in our database for station/object DB0ROB-10. If no packets are shown the sender has not sent any weather packets the latest 10 day(s).
| Time | Temp. | Humidity | Pressure | Rain* | Wind** | Luminosity | Snow |
|---|---|---|---|---|---|---|---|
| 1778173308 | 9.44° C | 74% | 1015 hPa | - | - | - | - |
| 1778172407 | 9.44° C | 74% | 1014.9 hPa | - | - | - | - |
| 1778171506 | 10.56° C | 68% | 1014.8 hPa | - | - | - | - |
| 1778170606 | 11.67° C | 63% | 1014.8 hPa | - | - | - | - |
| 1778169706 | 10° C | 64% | 1014.9 hPa | - | - | - | - |
| 1778168806 | 11.67° C | 61% | 1014.9 hPa | - | - | - | - |
| 1778167905 | 10° C | 70% | 1014.9 hPa | - | - | - | - |
| 1778167004 | 10.56° C | 69% | 1014.8 hPa | - | - | - | - |
| 1778166104 | 11.67° C | 64% | 1014.7 hPa | - | - | - | - |
| 1778165204 | 12.22° C | 62% | 1014.6 hPa | - | - | - | - |
| 1778164304 | 10° C | 69% | 1014.8 hPa | - | - | - | - |
| 1778163402 | 13.89° C | 57% | 1014.7 hPa | - | - | - | - |
| 1778162502 | 14.44° C | 53% | 1014.5 hPa | - | - | - | - |
| 1778161607 | 13.33° C | 53% | 1014.7 hPa | - | - | - | - |
| 1778160707 | 14.44° C | 51% | 1014.6 hPa | - | - | - | - |
| 1778159806 | 13.89° C | 55% | 1014.6 hPa | - | - | - | - |
| 1778158906 | 14.44° C | 52% | 1014.5 hPa | - | - | - | - |
| 1778158006 | 12.78° C | 55% | 1014.5 hPa | - | - | - | - |
| 1778157106 | 13.89° C | 52% | 1014.3 hPa | - | - | - | - |
| 1778156206 | 16.11° C | 49% | 1014.3 hPa | - | - | - | - |
| 1778155305 | 12.22° C | 63% | 1014.3 hPa | - | - | - | - |
| 1778154405 | 12.78° C | 62% | 1014.3 hPa | - | - | - | - |
| 1778153505 | 11.67° C | 64% | 1014.3 hPa | - | - | - | - |
| 1778152605 | 13.89° C | 54% | 1014.3 hPa | - | - | - | - |
| 1778151705 | 15° C | 52% | 1014.2 hPa | - | - | - | - |
* Rain since midnight (hover to see other rain measurements)
** Current wind speed in m/s (hover to see current wind gust speed)